AirNav   Free Bose Alto or Rondo audio sunglasses
 
 420 users online  

9NJ3 AT&T Helistop
Basking Ridge, New Jersey, USA

GOING TO BASKING RIDGE?


FAA INFORMATION EFFECTIVE 03 DECEMBER 2020

Location

FAA Identifier: 9NJ3
Lat/Long: 40-43-00.3630N 074-32-58.5640W
40-43.006050N 074-32.976067W
40.7167675,-74.5496011
(estimated)
Elevation: 280 ft. / 85 m (estimated)
Variation: 12W (1985)
From city: 2 miles N of BASKING RIDGE, NJ
Time zone: UTC -5 (UTC -4 during Daylight Saving Time)
Zip code: 07920

Heliport Operations

Heliport use: Private use. Permission required prior to landing
Activation date: 11/1977
Control tower: no
ARTCC: NEW YORK CENTER
FSS: MILLVILLE FLIGHT SERVICE STATION
Attendance: UNATNDD
Wind indicator: yes
Segmented circle: no

Heliport Communications

WX ASOS at SMQ (8 nm SW): 120.6 (908-722-2139)
WX AWOS-3 at MMU (8 nm NE): PHONE 973-290-0135
WX AWOS-3 at LDJ (15 nm SE): 124.025 (908-862-7383)
WX ASOS at CDW (15 nm NE): 135.5 (973-575-4417)
WX ASOS at EWR (17 nm E): PHONE 973-621-2892
WX ASOS at 12N (19 nm NW): PHONE 917-786-7221

Nearby radio navigation aids

VOR radial/distance  VOR name  Freq  Var
SBJr057/11.9SOLBERG VOR/DME112.9010W
BWZr123/13.3BROADWAY VOR/DME114.2011W
SAXr192/21.1SPARTA VORTAC115.7011W
STWr150/22.1STILLWATER VOR/DME109.6011W
TEBr261/23.5TETERBORO VOR/DME108.4011W
COLr335/30.1COLTS NECK VOR/DME115.4011W
CRIr293/30.5CANARSIE VOR/DME112.3011W
RBVr005/31.0ROBBINSVILLE VORTAC113.8010W
LGAr275/31.2LA GUARDIA VOR/DME113.1012W
ARDr040/32.2YARDLEY VOR/DME108.2010W
JFKr290/35.8KENNEDY VOR/DME115.9012W

 
NDB name  Hdg/Dist  Freq  Var  ID
CHATHAM268/5.625413WCAT -.-. .- -

Heliport Services

Runway Information

Helipad H1

Dimensions: 44 x 44 ft. / 13 x 13 m
Surface: concrete, in fair condition
Latitude: 40-43.006050N
Longitude: 074-32.976067W
Elevation: 280.0 ft.
Traffic pattern: leftleft
Markings: none, in fair condition

Heliport Ownership and Management from official FAA records

Ownership: Privately-owned
Owner: AMERICAN TELEPHONE & TEL
MORRISTOWN MUNI ARPT
MORRISTOWN, NJ 07960-4648
Phone 201-326-1400
Manager: R.F. MAISCH
MORRISTOWN MUNI ARPT
MORRISTOWN, NJ 07960-4648
Phone 201-326-1400

Additional Remarks

FOR CD CTC NEW YORK APCH AT 800-645-3206.

Instrument Procedures

There are no published instrument procedures at 9NJ3.

Some nearby airports with instrument procedures:

KSMQ - Somerset Airport (8 nm SW)
KMMU - Morristown Municipal Airport (8 nm NE)
N51 - Solberg-Hunterdon Airport (12 nm SW)
47N - Central Jersey Regional Airport (12 nm S)
KLDJ - Linden Airport (15 nm SE)
KCDW - Essex County Airport (15 nm NE)
KEWR - Newark Liberty International Airport (17 nm E)
N07 - Lincoln Park Airport (17 nm NE)
12N - Aeroflex-Andover Airport (19 nm NW)
39N - Princeton Airport (20 nm S)
 
Loc | Ops | Rwys | IFR | FBO | Links
Com | Nav | Svcs | Stats | Notes
Area around 9NJ3 (AT&T Helistop)
 
Road maps at: MapQuest Bing Google
 
Aerial photo
No photo
 
Sectional chart

 
Airport distance calculator
Flying to AT&T Helistop? Find the distance to fly.

From to 9NJ3

Sunrise and sunset
Times for 03-Dec-2020
 Local
(UTC-5)
 Zulu
(UTC)
Morning civil twilight06:3611:36
Sunrise07:0712:07
Sunset16:3021:30
Evening civil twilight17:0122:01

Current date and time
Zulu (UTC)  03-Dec-2020 11:13:08
Local (UTC-5)  03-Dec-2020 06:13:08
 
METAR
KMMU 
7nm NE 
031055Z AUTO 00000KT 10SM CLR 00/M03 A3020 RMK AO2
KSMQ 
8nm SW 
ASOS 120.60 908-722-2139
031053Z AUTO 00000KT 10SM CLR M03/M05 A3021 RMK AO2 SLP232 T10331050
KLDJ 
15nm SE 
031055Z AUTO 28006KT 10SM CLR 01/M05 A3023 RMK AO2 T00101046
KCDW 
16nm NE 
031053Z AUTO 00000KT 10SM CLR 01/M04 A3021 RMK AO2 SLP235 T00061044
KEWR 
18nm E 
031051Z 21006KT 10SM CLR M01/M04 A3022 RMK AO2 SLP232 T10061039
K12N 
20nm NW 
031054Z AUTO 00000KT M01/M05 A3019 RMK AO1 SLP234 T10111050
TAF
KEWR 
18nm E 
030830Z 0309/0412 23007KT P6SM SKC FM031500 24011KT P6SM FEW250 FM032300 22008KT P6SM SCT120 BKN250 FM040400 22005KT P6SM BKN120
NOTAMs
Click for the latest NOTAMs
NOTAMs are issued by the DoD/FAA and will open in a separate window not controlled by AirNav.

 

 
 

Would you like to see your business listed on this page?

 If your business provides an interesting product or service to pilots, flight crews, aircraft, or users of the AT&T Helistop, you should consider listing it here.  To start the listing process, click on the button below
 
Add a business
 

Other Pages about AT&T Helistop

Update a link
 
Copyright © AirNav, LLC. All rights reserved. Privacy Policy  Contact